Ruskin, Nebraska
Current Conditions -  °F | °C
As of 9:55 PM on Sunday 23 Nov 2014 (Local Time) from KHJH Reporting Station
Scattered Clouds Scattered Clouds  
Wind Chill: -2°   Ceiling: Unl
Heat Index:   Visibility: 10mi
Dew Point: -3°   Wind: 9mph
Humidity: 68%   Direction: 310°NW
Pressure: 29.64"   Gusts: NA
Location:  40.14°N, 97.87°W
Report Text: KHJH 240355Z AUTO 31008KT 10SM SCT055 02/M03 A2964 RMK AO2 T00201033
Loading
Personal Weather Stations






























Interactive Weather Map New forecast layout! Learn more

10-Day Weather Forecast

Advertisements
Track Severe Weather on mobile